createdAt,value
2019-02-25T00:02:00.736Z,24.37
2019-02-25T00:04:33.026Z,24.60
2019-02-25T00:07:02.876Z,25.27
2019-02-25T00:09:33.725Z,25.33
2019-02-25T00:12:04.933Z,26.50
2019-02-25T00:14:33.861Z,24.47
2019-02-25T00:17:20.971Z,25.50
2019-02-25T00:19:49.813Z,26.77
2019-02-25T00:22:20.728Z,24.43
2019-02-25T00:24:49.565Z,24.07
2019-02-25T00:27:21.110Z,25.27
2019-02-25T00:29:55.050Z,25.57
2019-02-25T00:32:23.910Z,25.23
2019-02-25T00:34:52.731Z,25.03
2019-02-25T00:37:21.552Z,24.93
2019-02-25T00:39:51.709Z,24.77
2019-02-25T00:42:35.509Z,24.27
2019-02-25T00:45:07.385Z,24.17
2019-02-25T00:47:44.337Z,24.00
2019-02-25T00:50:16.561Z,24.97
2019-02-25T00:52:51.581Z,23.17
2019-02-25T00:55:23.692Z,24.67
2019-02-25T00:57:58.781Z,24.60
2019-02-25T01:00:28.129Z,24.07
2019-02-25T01:02:58.191Z,23.03
2019-02-25T01:05:28.111Z,24.07
2019-02-25T01:08:04.388Z,23.47
2019-02-25T01:10:30.219Z,24.03
2019-02-25T01:13:18.949Z,25.40
2019-02-25T01:15:48.924Z,24.93
2019-02-25T01:18:17.895Z,26.37
2019-02-25T01:20:48.264Z,23.73
2019-02-25T01:23:17.045Z,25.63
2019-02-25T01:25:46.240Z,24.47
2019-02-25T01:28:17.374Z,23.80
2019-02-25T01:30:50.775Z,24.60
2019-02-25T01:33:21.486Z,23.43
2019-02-25T01:35:50.515Z,22.77
2019-02-25T01:38:22.244Z,23.17
2019-02-25T01:40:51.327Z,23.00
2019-02-25T01:43:20.343Z,23.50
2019-02-25T01:45:52.323Z,23.97
2019-02-25T01:48:21.945Z,22.50
2019-02-25T01:50:50.782Z,24.83
2019-02-25T01:53:20.533Z,23.33
2019-02-25T01:56:07.271Z,23.67
2019-02-25T01:58:36.029Z,24.77
2019-02-25T02:01:04.950Z,23.13
2019-02-25T02:03:34.076Z,23.37
2019-02-25T02:06:23.107Z,24.57
2019-02-25T02:08:52.210Z,22.40
2019-02-25T02:11:23.061Z,23.40
2019-02-25T02:13:53.271Z,22.80
2019-02-25T02:16:26.703Z,22.47
2019-02-25T02:18:56.561Z,23.87
2019-02-25T02:21:29.200Z,22.60
2019-02-25T02:24:01.925Z,23.13
2019-02-25T02:26:34.740Z,24.67
2019-02-25T02:29:03.527Z,24.00
2019-02-25T02:31:35.216Z,23.83
2019-02-25T02:34:04.141Z,24.80
2019-02-25T02:40:03.603Z,23.03
2019-02-25T02:42:57.323Z,23.47
2019-02-25T02:45:35.339Z,25.23
2019-02-25T02:48:19.271Z,24.37
2019-02-25T02:53:37.417Z,22.87
2019-02-25T02:56:07.726Z,23.07
2019-02-25T02:58:37.819Z,22.97
2019-02-25T03:01:07.136Z,22.40
2019-02-25T03:03:38.121Z,21.67
2019-02-25T03:06:07.033Z,22.33
2019-02-25T03:08:36.180Z,23.03
2019-02-25T03:11:05.256Z,22.40
2019-02-25T03:13:34.118Z,21.87
2019-02-25T03:16:05.260Z,23.73
2019-02-25T03:18:34.151Z,24.13
2019-02-25T03:21:03.018Z,23.03
2019-02-25T03:23:31.818Z,23.63
2019-02-25T03:26:04.952Z,24.67
2019-02-25T03:28:36.894Z,20.50
2019-02-25T03:31:05.985Z,22.13
2019-02-25T03:33:34.702Z,22.40
2019-02-25T03:36:05.568Z,22.17
2019-02-25T03:38:36.050Z,21.80
2019-02-25T03:41:06.098Z,22.03
2019-02-25T03:43:35.049Z,21.77
2019-02-25T03:46:03.862Z,21.10
2019-02-25T03:48:32.775Z,20.10
2019-02-25T03:51:03.986Z,21.67
2019-02-25T03:53:33.305Z,22.87
2019-02-25T03:56:02.119Z,21.23
2019-02-25T03:58:35.263Z,21.80
2019-02-25T04:01:04.615Z,21.27
2019-02-25T04:03:34.651Z,20.87
2019-02-25T04:06:05.305Z,20.83
2019-02-25T04:08:34.228Z,20.80
2019-02-25T04:11:06.192Z,20.27
2019-02-25T04:13:42.945Z,20.30
2019-02-25T04:16:12.559Z,19.73
2019-02-25T04:18:43.513Z,21.30
2019-02-25T04:21:14.384Z,21.53
2019-02-25T04:23:45.607Z,20.30
2019-02-25T04:26:14.635Z,21.13
2019-02-25T04:28:43.528Z,21.60
2019-02-25T04:31:15.554Z,19.13
2019-02-25T04:33:44.323Z,21.83
2019-02-25T04:36:15.247Z,20.87
2019-02-25T04:38:43.912Z,21.00
2019-02-25T04:41:12.692Z,20.07
2019-02-25T04:43:41.757Z,20.33
2019-02-25T04:46:11.716Z,20.97
2019-02-25T04:48:40.669Z,21.50
2019-02-25T04:51:09.487Z,21.73
2019-02-25T04:53:41.019Z,21.80
2019-02-25T04:56:12.794Z,20.37
2019-02-25T04:58:44.903Z,22.03
2019-02-25T05:01:13.954Z,20.53
2019-02-25T05:03:44.416Z,19.50
2019-02-25T05:06:13.219Z,21.57
2019-02-25T05:08:42.090Z,21.40
2019-02-25T05:11:11.059Z,22.20
2019-02-25T05:16:40.047Z,21.43
2019-02-25T05:19:18.020Z,23.33
2019-02-25T05:21:46.902Z,23.03
2019-02-25T05:24:17.636Z,22.13
2019-02-25T05:26:46.484Z,23.70
2019-02-25T05:29:16.244Z,21.80
2019-02-25T05:31:48.164Z,22.50
2019-02-25T05:34:19.002Z,24.67
2019-02-25T05:36:47.910Z,23.50
2019-02-25T05:39:48.885Z,26.03
2019-02-25T05:42:24.129Z,25.90
2019-02-25T05:44:53.175Z,25.33
2019-02-25T05:47:21.880Z,25.60
2019-02-25T05:49:51.818Z,26.03
2019-02-25T05:52:21.135Z,25.40
2019-02-25T05:54:53.303Z,24.63
2019-02-25T05:57:22.399Z,26.90
2019-02-25T05:59:53.020Z,26.83
2019-02-25T06:02:21.806Z,26.73
2019-02-25T06:05:06.535Z,24.50
2019-02-25T06:07:46.149Z,25.73
2019-02-25T06:10:18.274Z,25.47
2019-02-25T06:13:06.614Z,25.07
2019-02-25T06:15:35.687Z,24.73
2019-02-25T06:18:13.441Z,27.23
2019-02-25T06:20:42.597Z,26.27
2019-02-25T06:23:11.472Z,25.30
2019-02-25T06:25:44.528Z,25.30
2019-02-25T06:28:15.066Z,25.83
2019-02-25T06:30:44.002Z,25.87
2019-02-25T06:33:12.997Z,25.67
2019-02-25T06:35:41.946Z,25.13
2019-02-25T06:38:10.985Z,24.63
2019-02-25T06:40:40.046Z,24.77
2019-02-25T06:43:11.192Z,24.13
2019-02-25T06:45:44.263Z,23.93
2019-02-25T06:48:13.084Z,24.63
2019-02-25T06:50:42.532Z,25.13
2019-02-25T06:53:11.474Z,23.43
2019-02-25T06:55:40.543Z,25.80
2019-02-25T06:58:15.509Z,24.67
2019-02-25T07:00:40.178Z,26.53
2019-02-25T07:03:09.015Z,25.83
2019-02-25T07:05:56.859Z,25.80
2019-02-25T07:08:44.005Z,25.10
2019-02-25T07:11:32.073Z,24.80
2019-02-25T07:14:04.363Z,24.40
2019-02-25T07:16:53.430Z,25.57
2019-02-25T07:19:23.880Z,24.83
2019-02-25T07:21:56.916Z,25.90
2019-02-25T07:24:36.590Z,24.47
2019-02-25T07:27:10.822Z,24.93
2019-02-25T07:29:50.403Z,25.57
2019-02-25T07:32:46.255Z,26.07
2019-02-25T07:35:19.763Z,26.20
2019-02-25T07:40:41.741Z,25.17
2019-02-25T07:43:12.399Z,24.67
2019-02-25T07:45:57.732Z,25.00
2019-02-25T07:48:33.969Z,25.23
2019-02-25T07:51:04.363Z,25.53
2019-02-25T07:53:43.726Z,24.67
2019-02-25T07:56:17.200Z,26.77
2019-02-25T07:58:59.649Z,27.20
2019-02-25T08:01:36.072Z,27.93
2019-02-25T08:04:15.581Z,28.33
2019-02-25T08:06:46.191Z,27.67
2019-02-25T08:09:25.487Z,27.47
2019-02-25T08:12:13.880Z,26.53
2019-02-25T08:14:50.401Z,26.63
2019-02-25T08:17:26.973Z,26.67
2019-02-25T08:20:12.806Z,26.20
2019-02-25T08:22:47.737Z,26.47
2019-02-25T08:25:22.579Z,27.73
2019-02-25T08:28:12.505Z,26.90
2019-02-25T08:30:49.133Z,26.57
2019-02-25T08:33:36.202Z,25.70
2019-02-25T08:36:28.194Z,26.00
2019-02-25T08:39:01.596Z,28.63
2019-02-25T08:41:31.995Z,27.13
2019-02-25T08:44:04.750Z,26.43
2019-02-25T08:46:42.700Z,27.77
2019-02-25T08:49:22.354Z,26.77
2019-02-25T08:51:51.067Z,27.27
2019-02-25T08:54:20.073Z,27.67
2019-02-25T08:56:50.643Z,27.60
2019-02-25T08:59:19.734Z,29.13
2019-02-25T09:01:50.541Z,28.20
2019-02-25T09:04:19.272Z,29.03
2019-02-25T09:06:48.330Z,28.33
2019-02-25T09:09:17.119Z,26.60
2019-02-25T09:11:46.081Z,28.30
2019-02-25T09:14:14.978Z,27.03
2019-02-25T09:16:51.075Z,27.67
2019-02-25T09:19:28.196Z,30.25
2019-02-25T09:22:04.926Z,28.92
2019-02-25T09:24:45.773Z,30.15
2019-02-25T09:27:18.988Z,29.57
2019-02-25T09:29:49.843Z,31.95
2019-02-25T09:32:25.336Z,31.10
2019-02-25T09:34:57.774Z,31.60
2019-02-25T09:37:33.793Z,32.75
2019-02-25T09:40:17.346Z,31.30
2019-02-25T09:42:50.271Z,30.95
2019-02-25T09:45:22.385Z,32.10
2019-02-25T09:47:54.627Z,32.67
2019-02-25T09:50:23.993Z,32.58
2019-02-25T09:52:53.087Z,32.90
2019-02-25T09:58:11.360Z,32.00
2019-02-25T10:00:46.035Z,32.63
2019-02-25T10:03:16.426Z,30.65
2019-02-25T10:05:56.601Z,32.35
2019-02-25T10:08:29.801Z,31.77
2019-02-25T10:10:59.446Z,32.17
2019-02-25T10:13:28.799Z,32.00
2019-02-25T10:16:00.995Z,33.28
2019-02-25T10:18:29.849Z,33.75
2019-02-25T10:21:00.722Z,33.28
2019-02-25T10:23:32.943Z,35.03
2019-02-25T10:26:02.954Z,32.65
2019-02-25T10:28:33.735Z,34.50
2019-02-25T10:31:08.329Z,32.08
2019-02-25T10:33:41.054Z,32.63
2019-02-25T10:36:09.867Z,32.78
2019-02-25T10:38:38.893Z,34.03
2019-02-25T10:41:07.847Z,32.30
2019-02-25T10:43:41.013Z,31.75
2019-02-25T10:46:12.966Z,33.75
2019-02-25T10:48:44.032Z,33.73
2019-02-25T10:51:13.692Z,34.63
2019-02-25T10:53:43.108Z,32.10
2019-02-25T10:56:19.978Z,32.98
2019-02-25T10:58:49.682Z,32.75
2019-02-25T11:01:19.898Z,33.28
2019-02-25T11:03:50.046Z,33.00
2019-02-25T11:06:19.608Z,32.83
2019-02-25T11:08:50.098Z,32.13
2019-02-25T11:11:22.636Z,31.42
2019-02-25T11:13:51.395Z,32.05
2019-02-25T11:16:20.426Z,30.88
2019-02-25T11:18:54.021Z,31.05
2019-02-25T11:21:21.589Z,31.37
2019-02-25T11:23:51.675Z,32.88
2019-02-25T11:26:20.670Z,32.23
2019-02-25T11:28:49.623Z,32.13
2019-02-25T11:31:22.848Z,33.35
2019-02-25T11:33:49.695Z,33.98
2019-02-25T11:36:20.150Z,31.77
2019-02-25T11:38:49.042Z,32.28
2019-02-25T11:41:17.864Z,32.70
2019-02-25T11:43:48.676Z,32.58
2019-02-25T11:46:17.507Z,34.10
2019-02-25T11:48:47.604Z,34.23
2019-02-25T11:51:16.819Z,35.48
2019-02-25T11:53:45.648Z,34.17
2019-02-25T11:56:14.459Z,35.70
2019-02-25T11:58:43.389Z,35.60
2019-02-25T12:01:12.512Z,35.40
2019-02-25T12:03:41.418Z,34.70
2019-02-25T12:06:10.328Z,34.13
2019-02-25T12:08:39.181Z,33.63
2019-02-25T12:11:09.094Z,35.70
2019-02-25T12:13:39.417Z,35.30
2019-02-25T12:16:08.314Z,34.13
2019-02-25T12:18:38.685Z,33.83
2019-02-25T12:21:09.048Z,32.93
2019-02-25T12:23:37.772Z,35.07
2019-02-25T12:26:06.638Z,34.97
2019-02-25T12:28:35.737Z,34.73
2019-02-25T12:31:04.608Z,34.40
2019-02-25T12:33:33.458Z,34.87
2019-02-25T12:36:03.865Z,35.67
2019-02-25T12:38:32.888Z,34.73
2019-02-25T12:41:06.020Z,35.00
2019-02-25T12:43:34.907Z,34.23
2019-02-25T12:46:09.143Z,35.17
2019-02-25T12:48:37.264Z,35.43
2019-02-25T12:51:06.315Z,34.40
2019-02-25T12:53:37.698Z,35.90
2019-02-25T12:56:05.778Z,36.53
2019-02-25T12:58:34.969Z,35.10
2019-02-25T13:01:03.838Z,36.00
2019-02-25T13:03:32.596Z,35.43
2019-02-25T13:06:01.728Z,37.03
2019-02-25T13:08:33.998Z,36.37
2019-02-25T13:11:04.512Z,35.27
2019-02-25T13:13:35.603Z,36.70
2019-02-25T13:16:06.022Z,34.83
2019-02-25T13:18:34.776Z,36.80
2019-02-25T13:21:03.635Z,34.00
2019-02-25T13:23:32.574Z,36.73
2019-02-25T13:26:07.439Z,35.67
2019-02-25T13:28:36.355Z,36.13
2019-02-25T13:31:05.679Z,34.90
2019-02-25T13:33:35.689Z,36.37
2019-02-25T13:36:07.494Z,35.73
2019-02-25T13:38:36.306Z,36.93
2019-02-25T13:41:05.097Z,37.10
2019-02-25T13:43:33.872Z,39.03
2019-02-25T13:46:04.261Z,38.03
2019-02-25T13:48:35.732Z,37.50
2019-02-25T13:51:04.659Z,38.33
2019-02-25T13:53:33.620Z,38.60
2019-02-25T13:56:02.745Z,38.53
2019-02-25T13:58:31.651Z,38.37
2019-02-25T14:01:02.298Z,38.27
2019-02-25T14:03:31.314Z,37.30
2019-02-25T14:06:00.358Z,39.47
2019-02-25T14:08:29.771Z,37.80
2019-02-25T14:10:58.594Z,39.67
2019-02-25T14:13:32.587Z,38.40
2019-02-25T14:16:01.374Z,38.73
2019-02-25T14:18:30.346Z,38.50
2019-02-25T14:20:59.228Z,38.87
2019-02-25T14:23:28.093Z,36.40
2019-02-25T14:25:59.199Z,38.80
2019-02-25T14:28:30.054Z,38.17
2019-02-25T14:31:13.869Z,38.27
2019-02-25T14:33:42.936Z,37.77
2019-02-25T14:36:11.735Z,38.80
2019-02-25T14:38:40.815Z,39.30
2019-02-25T14:41:11.690Z,40.10
2019-02-25T14:43:45.564Z,38.90
2019-02-25T14:46:16.505Z,40.70
2019-02-25T14:48:45.169Z,40.60
2019-02-25T14:51:14.670Z,42.33
2019-02-25T14:53:44.798Z,43.37
2019-02-25T14:56:14.225Z,43.73
2019-02-25T14:58:47.767Z,43.57
2019-02-25T15:01:18.144Z,43.03
2019-02-25T15:03:47.658Z,43.80
2019-02-25T15:06:19.717Z,43.67
2019-02-25T15:08:48.644Z,42.37
2019-02-25T15:11:17.702Z,43.87
2019-02-25T15:13:46.732Z,43.27
2019-02-25T15:16:15.732Z,44.80
2019-02-25T15:18:44.813Z,44.63
2019-02-25T15:21:15.904Z,44.30
2019-02-25T15:23:44.554Z,48.43
2019-02-25T15:27:11.004Z,45.47
2019-02-25T15:29:44.731Z,44.20
2019-02-25T15:32:14.023Z,47.07
2019-02-25T15:34:43.224Z,47.00
2019-02-25T15:37:13.858Z,46.57
2019-02-25T15:39:45.190Z,46.27
2019-02-25T15:42:14.679Z,48.93
2019-02-25T15:44:44.543Z,47.97
2019-02-25T15:47:15.074Z,48.17
2019-02-25T15:49:44.395Z,50.87
2019-02-25T15:52:16.531Z,50.10
2019-02-25T15:54:47.863Z,50.10
2019-02-25T15:57:20.606Z,49.30
2019-02-25T15:59:49.601Z,48.87
2019-02-25T16:02:18.632Z,52.83
2019-02-25T16:04:47.425Z,49.03
2019-02-25T16:07:17.103Z,53.13
2019-02-25T16:09:46.590Z,52.23
2019-02-25T16:12:15.521Z,51.30
2019-02-25T16:14:44.905Z,52.97
2019-02-25T16:17:14.633Z,53.10
2019-02-25T16:19:47.343Z,54.10
2019-02-25T16:22:14.034Z,55.73
2019-02-25T16:24:43.664Z,54.67
2019-02-25T16:27:12.681Z,53.17
2019-02-25T16:29:41.615Z,57.63
2019-02-25T16:32:10.514Z,51.70
2019-02-25T16:34:40.613Z,51.87
2019-02-25T16:37:17.696Z,52.27
2019-02-25T16:39:46.821Z,54.97
2019-02-25T16:42:15.771Z,55.60
2019-02-25T16:44:44.946Z,54.90
2019-02-25T16:47:15.873Z,57.00
2019-02-25T16:49:44.456Z,59.23
2019-02-25T16:52:13.837Z,58.63
2019-02-25T16:54:44.064Z,57.40
2019-02-25T16:57:16.373Z,54.63
2019-02-25T16:59:45.159Z,49.80
2019-02-25T17:02:14.281Z,49.60
2019-02-25T17:04:43.435Z,46.70
2019-02-25T17:07:14.357Z,51.07
2019-02-25T17:09:44.477Z,48.87
2019-02-25T17:12:13.582Z,47.93
2019-02-25T17:14:50.438Z,48.23
2019-02-25T17:17:19.463Z,46.83
2019-02-25T17:19:48.665Z,49.90
2019-02-25T17:22:20.201Z,49.33
2019-02-25T17:24:52.462Z,49.80
2019-02-25T17:27:20.723Z,46.37
2019-02-25T17:30:15.330Z,49.10
2019-02-25T17:32:46.632Z,47.53
2019-02-25T17:35:19.002Z,47.13
2019-02-25T17:37:48.053Z,47.07
2019-02-25T17:40:20.415Z,43.73
2019-02-25T17:42:51.713Z,40.40
2019-02-25T17:45:25.096Z,42.03
2019-02-25T17:47:58.173Z,41.17
2019-02-25T17:50:24.791Z,41.83
2019-02-25T17:52:53.707Z,44.27
2019-02-25T17:55:27.070Z,45.57
2019-02-25T17:58:38.582Z,43.80
2019-02-25T18:01:09.278Z,42.20
2019-02-25T18:03:39.631Z,44.37
2019-02-25T18:06:08.797Z,46.07
2019-02-25T18:08:39.338Z,46.23
2019-02-25T18:11:08.501Z,46.87
2019-02-25T18:13:37.297Z,50.70
2019-02-25T18:16:07.992Z,52.00
2019-02-25T18:18:41.332Z,54.87
2019-02-25T18:21:14.885Z,56.43
2019-02-25T18:23:44.083Z,58.20
2019-02-25T18:26:14.949Z,62.10
2019-02-25T18:28:46.677Z,62.37
2019-02-25T18:31:16.588Z,59.50
2019-02-25T18:34:04.867Z,59.27
2019-02-25T18:36:34.319Z,57.60
2019-02-25T18:39:03.171Z,62.23
2019-02-25T18:41:34.223Z,57.27
2019-02-25T18:44:04.831Z,57.37
2019-02-25T18:46:36.840Z,58.53
2019-02-25T18:49:07.389Z,56.80
2019-02-25T18:51:37.465Z,56.87
2019-02-25T18:54:06.989Z,55.80
2019-02-25T18:56:40.233Z,56.60
2019-02-25T18:59:13.708Z,59.13
2019-02-25T19:01:39.857Z,55.20
2019-02-25T19:04:17.571Z,59.57
2019-02-25T19:06:51.563Z,54.73
2019-02-25T19:09:23.188Z,57.50
2019-02-25T19:11:54.006Z,55.53
2019-02-25T19:14:28.845Z,55.33
2019-02-25T19:17:01.913Z,54.53
2019-02-25T19:19:34.062Z,53.97
2019-02-25T19:22:05.944Z,55.10
2019-02-25T19:24:39.817Z,53.77
2019-02-25T19:27:09.152Z,58.80
2019-02-25T19:29:40.435Z,54.60
2019-02-25T19:32:09.298Z,55.97
2019-02-25T19:34:39.780Z,57.43
2019-02-25T19:37:12.646Z,53.33
2019-02-25T19:39:44.506Z,56.90
2019-02-25T19:42:18.203Z,55.07
2019-02-25T19:44:48.670Z,52.97
2019-02-25T19:47:19.340Z,54.07
2019-02-25T19:49:48.818Z,52.77
2019-02-25T19:52:18.685Z,52.23
2019-02-25T19:54:50.743Z,55.37
2019-02-25T19:57:21.690Z,53.27
2019-02-25T19:59:52.985Z,50.23
2019-02-25T20:02:22.591Z,48.73
2019-02-25T20:04:55.566Z,51.13
2019-02-25T20:07:26.511Z,53.87
2019-02-25T20:10:00.290Z,53.40
2019-02-25T20:12:43.781Z,51.03
2019-02-25T20:15:37.515Z,51.33
2019-02-25T20:18:02.996Z,49.57
2019-02-25T20:21:03.991Z,54.10
2019-02-25T20:23:31.917Z,55.03
2019-02-25T20:26:01.465Z,53.67
2019-02-25T20:28:30.540Z,54.23
2019-02-25T20:31:06.157Z,55.80
2019-02-25T20:33:50.903Z,56.17
2019-02-25T20:36:19.238Z,57.00
2019-02-25T20:38:46.308Z,60.13
2019-02-25T20:41:17.933Z,57.90
2019-02-25T20:43:47.243Z,58.37
2019-02-25T20:46:19.948Z,61.30
2019-02-25T20:48:50.495Z,62.63
2019-02-25T20:51:32.053Z,61.90
2019-02-25T20:54:08.848Z,63.60
2019-02-25T20:56:37.843Z,66.60
2019-02-25T20:59:10.545Z,64.70
2019-02-25T21:01:46.681Z,65.30
2019-02-25T21:04:27.694Z,66.40
2019-02-25T21:06:56.794Z,67.60
2019-02-25T21:09:29.160Z,67.77
2019-02-25T21:12:00.761Z,66.80
2019-02-25T21:14:37.999Z,71.43
2019-02-25T21:17:09.349Z,70.13
2019-02-25T21:19:44.321Z,68.70
2019-02-25T21:22:29.486Z,71.40
2019-02-25T21:25:07.384Z,69.93
2019-02-25T21:27:49.502Z,67.57
2019-02-25T21:30:37.059Z,69.07
2019-02-25T21:33:02.047Z,67.53
2019-02-25T21:35:41.964Z,75.07
2019-02-25T21:38:22.208Z,70.67
2019-02-25T21:40:48.420Z,71.47
2019-02-25T21:43:26.358Z,75.40
2019-02-25T21:45:54.774Z,73.57
2019-02-25T21:48:25.664Z,72.57
2019-02-25T21:50:58.108Z,71.63
2019-02-25T21:53:26.428Z,69.53
2019-02-25T21:56:02.948Z,77.30
2019-02-25T21:58:42.942Z,79.47
2019-02-25T22:01:20.915Z,76.40
2019-02-25T22:03:52.610Z,74.87
2019-02-25T22:06:53.360Z,70.90
2019-02-25T22:09:36.017Z,74.23
2019-02-25T22:12:10.425Z,64.37
2019-02-25T22:14:47.624Z,69.70
2019-02-25T22:17:31.966Z,69.77
2019-02-25T22:22:37.547Z,72.53
2019-02-25T22:25:27.617Z,70.03
2019-02-25T22:28:09.952Z,68.70
2019-02-25T22:33:43.812Z,67.13
2019-02-25T22:36:32.737Z,71.70
2019-02-25T22:39:09.019Z,72.30
2019-02-25T22:41:52.021Z,69.53
2019-02-25T22:47:25.027Z,67.57
2019-02-25T22:53:22.594Z,64.87
2019-02-25T22:56:11.852Z,63.17
2019-02-25T22:58:45.098Z,63.00
2019-02-25T23:01:26.276Z,66.70
2019-02-25T23:05:05.057Z,63.90
2019-02-25T23:07:02.952Z,63.83
2019-02-25T23:09:41.033Z,65.87
2019-02-25T23:12:11.551Z,65.73
2019-02-25T23:14:50.591Z,64.53
2019-02-25T23:17:23.891Z,63.03
2019-02-25T23:20:27.248Z,64.73
2019-02-25T23:24:47.420Z,65.23
2019-02-25T23:27:04.905Z,63.73
2019-02-25T23:32:33.775Z,61.53
2019-02-25T23:44:37.938Z,65.50
2019-02-25T23:47:12.862Z,65.73
2019-02-25T23:49:50.085Z,64.70
2019-02-25T23:52:30.996Z,69.47
2019-02-25T23:56:13.980Z,65.00
2019-02-25T23:58:20.232Z,67.70
